createdAt,value
2017-07-15T00:00:58.304Z,15.74
2017-07-15T00:03:25.912Z,15.71
2017-07-15T00:05:53.548Z,15.68
2017-07-15T00:08:21.145Z,15.75
2017-07-15T00:10:48.959Z,15.82
2017-07-15T00:13:16.556Z,15.83
2017-07-15T00:15:44.155Z,15.72
2017-07-15T00:18:11.781Z,15.74
2017-07-15T00:20:39.384Z,15.76
2017-07-15T00:23:07.003Z,15.61
2017-07-15T00:25:34.596Z,15.71
2017-07-15T00:28:02.219Z,15.65
2017-07-15T00:30:29.829Z,15.67
2017-07-15T00:32:57.469Z,15.64
2017-07-15T00:35:25.085Z,15.74
2017-07-15T00:37:52.692Z,15.74
2017-07-15T00:40:20.339Z,15.55
2017-07-15T00:42:47.935Z,15.58
2017-07-15T00:45:15.588Z,15.51
2017-07-15T00:47:43.211Z,15.39
2017-07-15T00:50:10.836Z,15.38
2017-07-15T00:52:38.488Z,15.34
2017-07-15T00:55:06.136Z,15.31
2017-07-15T00:57:33.770Z,15.30
2017-07-15T01:00:01.383Z,15.29
2017-07-15T01:02:29.036Z,15.28
2017-07-15T01:04:56.661Z,15.23
2017-07-15T01:07:24.339Z,15.07
2017-07-15T01:09:51.983Z,15.11
2017-07-15T01:12:19.619Z,15.09
2017-07-15T01:14:47.236Z,15.20
2017-07-15T01:17:14.873Z,15.27
2017-07-15T01:19:42.477Z,15.23
2017-07-15T01:22:10.131Z,15.17
2017-07-15T01:24:37.731Z,14.99
2017-07-15T01:27:05.327Z,14.99
2017-07-15T01:29:32.961Z,14.89
2017-07-15T01:32:00.572Z,14.93
2017-07-15T01:34:28.220Z,14.91
2017-07-15T01:36:55.823Z,15.00
2017-07-15T01:39:23.471Z,14.98
2017-07-15T01:41:51.076Z,14.99
2017-07-15T01:44:18.704Z,14.92
2017-07-15T01:46:46.327Z,14.94
2017-07-15T01:49:13.927Z,14.99
2017-07-15T01:51:41.581Z,14.86
2017-07-15T01:54:09.213Z,14.94
2017-07-15T01:56:36.871Z,14.94
2017-07-15T01:59:04.480Z,14.75
2017-07-15T02:01:32.185Z,14.83
2017-07-15T02:03:59.783Z,14.82
2017-07-15T02:06:27.424Z,14.77
2017-07-15T02:08:55.204Z,14.74
2017-07-15T02:11:22.905Z,14.67
2017-07-15T02:13:50.507Z,14.69
2017-07-15T02:16:18.119Z,14.71
2017-07-15T02:18:45.772Z,14.75
2017-07-15T02:21:13.379Z,14.76
2017-07-15T02:23:41.007Z,14.75
2017-07-15T12:15:36.780Z,21.13
2017-07-15T12:18:04.379Z,21.18
2017-07-15T12:20:32.025Z,21.12
2017-07-15T12:22:59.647Z,21.23
2017-07-15T12:25:27.284Z,21.30
2017-07-15T12:27:54.883Z,21.36
2017-07-15T12:30:22.506Z,21.49
2017-07-15T12:32:50.136Z,21.49
2017-07-15T12:35:17.790Z,21.48
2017-07-15T12:37:45.388Z,21.65
2017-07-15T12:40:12.996Z,21.60
2017-07-15T12:42:40.716Z,21.42
2017-07-15T12:45:08.324Z,21.59
2017-07-15T12:47:35.959Z,21.66
2017-07-15T12:50:03.559Z,21.85
2017-07-15T12:52:31.183Z,21.84
2017-07-15T12:54:58.796Z,21.90
2017-07-15T12:57:26.500Z,21.70
2017-07-15T12:59:54.123Z,21.65
2017-07-15T13:02:21.730Z,21.63
2017-07-15T13:04:49.359Z,21.59
2017-07-15T13:07:16.967Z,21.74
2017-07-15T13:09:44.597Z,21.93
2017-07-15T13:12:12.195Z,22.21
2017-07-15T13:14:39.860Z,22.30
2017-07-15T13:17:07.464Z,22.33
2017-07-15T13:19:35.111Z,21.91
2017-07-15T13:22:02.707Z,21.88
2017-07-15T13:24:30.344Z,21.81
2017-07-15T13:26:57.941Z,21.61
2017-07-15T13:29:25.588Z,21.66
2017-07-15T13:31:53.207Z,21.74
2017-07-15T13:34:20.850Z,21.70
2017-07-15T13:36:48.461Z,21.75
2017-07-15T13:39:16.117Z,21.77
2017-07-15T13:41:43.720Z,21.85
2017-07-15T13:44:11.345Z,21.84
2017-07-15T13:46:38.984Z,21.92
2017-07-15T13:49:06.592Z,22.09
2017-07-15T13:51:34.276Z,22.14
2017-07-15T13:54:01.879Z,22.10
2017-07-15T13:56:29.546Z,22.21
2017-07-15T13:58:57.175Z,22.63
2017-07-15T14:01:24.788Z,22.79
2017-07-15T14:03:52.435Z,22.92
2017-07-15T14:06:20.049Z,23.02
2017-07-15T14:08:47.684Z,23.02
2017-07-15T14:11:15.309Z,23.06
2017-07-15T14:13:42.960Z,23.24
2017-07-15T14:16:10.588Z,23.36
2017-07-15T14:18:38.228Z,23.27
2017-07-15T14:21:05.859Z,23.32
2017-07-15T14:23:33.476Z,23.33
2017-07-15T14:26:01.136Z,23.40
2017-07-15T14:28:28.766Z,23.55
2017-07-15T14:30:56.377Z,23.46
2017-07-15T14:33:24.024Z,23.51
2017-07-15T14:35:51.638Z,23.43
2017-07-15T14:38:19.252Z,23.51
2017-07-15T14:40:46.909Z,23.79
2017-07-15T14:43:14.528Z,23.89
2017-07-15T14:45:42.156Z,23.83
2017-07-15T14:48:09.751Z,23.56
2017-07-15T14:50:37.420Z,23.49
2017-07-15T14:53:05.089Z,23.32
2017-07-15T14:55:32.758Z,23.37
2017-07-15T14:58:00.409Z,23.39
2017-07-15T15:00:28.020Z,23.44
2017-07-15T15:02:55.704Z,23.65
2017-07-15T15:05:23.333Z,23.66
2017-07-15T15:07:50.931Z,23.67
2017-07-15T15:10:18.564Z,23.76
2017-07-15T15:12:46.186Z,23.87
2017-07-15T15:15:13.832Z,23.95
2017-07-15T15:17:41.442Z,24.07
2017-07-15T15:20:09.063Z,24.14
2017-07-15T15:22:36.690Z,23.89
2017-07-15T15:25:04.354Z,23.74
2017-07-15T15:27:31.988Z,23.50
2017-07-15T15:29:59.608Z,23.22
2017-07-15T15:32:27.235Z,23.17
2017-07-15T15:34:54.849Z,23.38
2017-07-15T15:37:22.491Z,23.62
2017-07-15T15:39:50.190Z,23.63
2017-07-15T15:42:17.842Z,23.45
2017-07-15T15:44:45.441Z,23.28
2017-07-15T15:47:13.073Z,23.16
2017-07-15T15:49:40.748Z,23.22
2017-07-15T15:52:08.416Z,23.27
2017-07-15T15:54:36.028Z,23.24
2017-07-15T15:57:03.683Z,23.25
2017-07-15T15:59:31.285Z,23.19
2017-07-15T16:01:58.908Z,23.00
2017-07-15T16:04:26.515Z,22.76
2017-07-15T16:06:54.161Z,22.73
2017-07-15T16:09:21.747Z,22.80
2017-07-15T16:11:49.397Z,22.94
2017-07-15T16:14:16.995Z,23.01
2017-07-15T16:16:44.624Z,23.24
2017-07-15T16:19:12.220Z,23.14
2017-07-15T16:21:39.883Z,23.29
2017-07-15T16:24:07.917Z,23.45
2017-07-15T16:26:35.539Z,23.48
2017-07-15T16:29:03.211Z,23.44
2017-07-15T16:31:30.823Z,23.34
2017-07-15T16:33:58.457Z,23.40
2017-07-15T16:36:26.060Z,23.63
2017-07-15T16:38:53.688Z,23.77
2017-07-15T16:41:21.287Z,23.54
2017-07-15T16:43:48.932Z,23.54
2017-07-15T16:46:16.532Z,23.52
2017-07-15T16:48:44.197Z,23.31
2017-07-15T16:51:11.795Z,23.03
2017-07-15T16:53:39.433Z,23.06
2017-07-15T16:56:07.043Z,22.95
2017-07-15T16:58:34.689Z,23.04
2017-07-15T17:01:02.287Z,23.05
2017-07-15T17:03:29.933Z,22.82
2017-07-15T17:05:57.533Z,22.69
2017-07-15T17:08:25.207Z,22.55
2017-07-15T17:10:52.932Z,22.63
2017-07-15T17:13:20.535Z,22.66
2017-07-15T17:15:48.207Z,22.55
2017-07-15T17:18:15.910Z,22.48
2017-07-15T17:20:43.507Z,22.51
2017-07-15T17:23:11.107Z,22.55
2017-07-15T17:25:38.767Z,22.53
2017-07-15T17:28:06.440Z,22.52
2017-07-15T17:30:34.100Z,22.41
2017-07-15T17:33:01.696Z,22.40
2017-07-15T17:35:29.302Z,22.34
2017-07-15T17:37:56.940Z,22.26
2017-07-15T17:40:24.558Z,22.25
2017-07-15T17:42:52.204Z,22.11
2017-07-15T17:45:19.822Z,22.09
2017-07-15T17:47:47.444Z,22.14
2017-07-15T17:50:15.040Z,22.18
2017-07-15T17:52:42.671Z,22.19
2017-07-15T17:55:10.285Z,22.14
2017-07-15T17:57:37.929Z,22.11
2017-07-15T18:00:05.589Z,22.08
2017-07-15T18:02:33.202Z,22.12
2017-07-15T18:05:00.928Z,22.05
2017-07-15T18:07:28.612Z,22.03
2017-07-15T18:09:56.241Z,22.04
2017-07-15T18:12:23.844Z,22.02
2017-07-15T18:14:51.484Z,22.00
2017-07-15T18:17:19.095Z,21.97
2017-07-15T18:19:46.733Z,21.98
2017-07-15T18:22:14.366Z,21.96
2017-07-15T18:24:42.004Z,21.96
2017-07-15T18:27:09.606Z,21.93
2017-07-15T18:29:37.240Z,21.88
2017-07-15T18:32:04.850Z,21.84
2017-07-15T18:34:32.496Z,21.80
2017-07-15T18:37:00.125Z,21.81
2017-07-15T18:39:27.756Z,21.85
2017-07-15T18:41:55.396Z,21.82
2017-07-15T18:44:23.037Z,21.76
2017-07-15T18:46:50.738Z,21.74
2017-07-15T18:49:18.360Z,21.77
2017-07-15T18:51:46.007Z,21.78
2017-07-15T18:54:13.627Z,21.82
2017-07-15T18:56:41.260Z,21.85
2017-07-15T18:59:08.916Z,21.81
2017-07-15T19:01:36.537Z,21.75
2017-07-15T19:04:04.211Z,21.73
2017-07-15T19:06:31.836Z,21.76
2017-07-15T19:08:59.476Z,21.77
2017-07-15T19:11:27.096Z,21.74
2017-07-15T19:13:54.779Z,21.73
2017-07-15T19:16:22.402Z,21.71
2017-07-15T19:18:50.076Z,21.71
2017-07-15T19:21:17.695Z,21.70
2017-07-15T19:23:45.299Z,21.71
2017-07-15T19:26:12.949Z,21.71
2017-07-15T19:28:40.625Z,21.69
2017-07-15T19:31:08.220Z,21.69
2017-07-15T19:33:35.840Z,21.67
2017-07-15T19:36:03.484Z,21.65
2017-07-15T19:38:31.098Z,21.64
2017-07-15T19:40:58.773Z,21.64
2017-07-15T19:43:26.427Z,21.63
2017-07-15T19:45:54.083Z,21.63
2017-07-15T19:48:21.691Z,21.63
2017-07-15T19:50:49.364Z,21.61
2017-07-15T19:53:16.980Z,21.63
2017-07-15T19:55:44.628Z,21.61
2017-07-15T19:58:12.260Z,21.57
2017-07-15T20:00:39.832Z,21.58
2017-07-15T20:03:07.480Z,21.58
2017-07-15T20:05:35.084Z,21.54
2017-07-15T20:08:02.715Z,21.50
2017-07-15T20:10:30.320Z,21.48
2017-07-15T20:12:57.969Z,21.49
2017-07-15T20:15:25.574Z,21.43
2017-07-15T20:17:53.219Z,21.45
2017-07-15T20:20:20.896Z,21.50
2017-07-15T20:22:48.537Z,21.46
2017-07-15T20:25:16.183Z,21.44
2017-07-15T20:27:43.860Z,21.41
2017-07-15T20:30:11.483Z,21.41
2017-07-15T20:32:39.087Z,21.36
2017-07-15T20:35:06.772Z,21.38
2017-07-15T20:37:34.394Z,21.42
2017-07-15T20:40:02.042Z,21.39
2017-07-15T20:42:29.668Z,21.36
2017-07-15T20:44:57.337Z,21.33
2017-07-15T20:47:24.968Z,21.34
2017-07-15T20:49:52.629Z,21.31
2017-07-15T20:52:25.840Z,21.31
2017-07-15T20:54:53.479Z,21.30
2017-07-15T20:57:21.097Z,21.32
2017-07-15T20:59:48.665Z,21.30
2017-07-15T21:02:16.305Z,21.29
2017-07-15T21:04:43.930Z,21.26
2017-07-15T21:07:11.568Z,21.26
2017-07-15T21:09:39.201Z,21.28
2017-07-15T21:12:06.836Z,21.27
2017-07-15T21:14:34.447Z,21.25
2017-07-15T21:17:02.095Z,21.26
2017-07-15T21:19:29.735Z,21.26
2017-07-15T21:21:57.342Z,21.24
2017-07-15T21:24:24.976Z,21.23
2017-07-15T21:26:52.584Z,21.21
2017-07-15T21:29:20.330Z,21.24
2017-07-15T21:31:48.012Z,21.20
2017-07-15T21:34:15.647Z,21.19
2017-07-15T21:36:43.247Z,21.17
2017-07-15T21:39:10.903Z,21.15
2017-07-15T21:41:38.567Z,21.13
2017-07-15T21:44:06.207Z,21.10
2017-07-15T21:46:33.845Z,21.09
2017-07-15T21:49:01.483Z,21.08
2017-07-15T21:51:29.083Z,21.07
2017-07-15T21:53:56.884Z,21.11
2017-07-15T21:56:24.474Z,21.06
2017-07-15T21:58:52.140Z,21.05
2017-07-15T22:01:19.756Z,21.01
2017-07-15T22:03:47.353Z,20.96
2017-07-15T22:06:14.991Z,20.95
2017-07-15T22:08:42.614Z,20.94
2017-07-15T22:11:10.241Z,20.92
2017-07-15T22:13:37.835Z,20.89
2017-07-15T22:16:05.552Z,20.89
2017-07-15T22:18:33.216Z,20.83
2017-07-15T22:21:00.824Z,20.81
2017-07-15T22:23:28.460Z,20.74
2017-07-15T22:25:56.073Z,20.81
2017-07-15T22:28:23.696Z,20.85
2017-07-15T22:30:51.293Z,20.79
2017-07-15T22:33:18.919Z,20.81
2017-07-15T22:35:46.524Z,20.75
2017-07-15T22:38:14.164Z,20.79
2017-07-15T22:40:41.769Z,20.71
2017-07-15T22:43:09.423Z,20.71
2017-07-15T22:45:37.020Z,20.68
2017-07-15T22:48:04.683Z,20.59
2017-07-15T22:50:32.301Z,20.45
2017-07-15T22:52:59.903Z,20.41
2017-07-15T22:55:27.567Z,20.44
2017-07-15T22:57:55.198Z,20.46
2017-07-15T23:00:22.834Z,20.49
2017-07-15T23:02:50.479Z,20.54
2017-07-15T23:05:18.117Z,20.53
2017-07-15T23:07:45.720Z,20.54
2017-07-15T23:10:13.428Z,20.50
2017-07-15T23:12:41.126Z,20.51
2017-07-15T23:15:08.803Z,20.50
2017-07-15T23:17:36.412Z,20.46
2017-07-15T23:20:04.053Z,20.36
2017-07-15T23:22:31.675Z,20.22
2017-07-15T23:24:59.303Z,20.17
2017-07-15T23:27:26.938Z,20.18
2017-07-15T23:29:54.555Z,20.23
2017-07-15T23:32:22.244Z,20.26
2017-07-15T23:34:49.844Z,20.30
2017-07-15T23:37:17.480Z,20.33
2017-07-15T23:39:45.092Z,20.36
2017-07-15T23:42:12.729Z,20.36
2017-07-15T23:44:40.493Z,20.35
2017-07-15T23:47:08.115Z,20.33
2017-07-15T23:49:35.713Z,20.30
2017-07-15T23:52:03.336Z,20.31
2017-07-15T23:54:30.948Z,20.28
2017-07-15T23:56:58.589Z,20.28
2017-07-15T23:59:26.187Z,20.27
